createdAt,value
2022-08-26T02:00:48.790Z,19.86
2022-08-26T02:01:11.055Z,19.84
2022-08-26T02:01:31.414Z,19.84
2022-08-26T02:01:52.766Z,19.83
2022-08-26T02:02:14.300Z,19.84
2022-08-26T02:02:34.884Z,19.84
2022-08-26T02:02:55.282Z,19.81
2022-08-26T02:03:15.869Z,19.81
2022-08-26T02:03:38.704Z,19.81
2022-08-26T02:03:57.764Z,19.83
2022-08-26T02:04:18.492Z,19.80
2022-08-26T02:04:39.252Z,19.78
2022-08-26T02:05:00.370Z,19.78
2022-08-26T02:05:20.956Z,19.80
2022-08-26T02:05:41.553Z,19.81
2022-08-26T02:06:04.058Z,19.78
2022-08-26T02:06:24.449Z,19.81
2022-08-26T02:06:44.847Z,19.80
2022-08-26T02:07:05.432Z,19.80
2022-08-26T02:07:26.785Z,19.81
2022-08-26T02:07:47.655Z,19.83
2022-08-26T02:08:08.656Z,19.80
2022-08-26T02:08:29.239Z,19.83
2022-08-26T02:08:49.819Z,19.81
2022-08-26T02:09:10.758Z,19.78
2022-08-26T02:09:31.343Z,19.83
2022-08-26T02:09:52.052Z,19.81
2022-08-26T02:10:12.636Z,19.83
2022-08-26T02:10:34.227Z,19.84
2022-08-26T02:10:55.163Z,19.83
2022-08-26T02:11:15.783Z,19.83
2022-08-26T02:11:38.907Z,19.84
2022-08-26T02:11:59.815Z,19.83
2022-08-26T02:12:22.264Z,19.81
2022-08-26T02:12:42.858Z,19.86
2022-08-26T02:13:03.552Z,19.83
2022-08-26T02:13:24.179Z,19.84
2022-08-26T02:13:48.208Z,19.83
2022-08-26T02:14:55.913Z,19.86
2022-08-26T02:15:16.496Z,19.86
2022-08-26T02:15:37.824Z,19.83
2022-08-26T02:15:58.510Z,19.86
2022-08-26T02:16:18.867Z,19.84
2022-08-26T02:16:42.254Z,19.87
2022-08-26T02:17:03.312Z,19.84
2022-08-26T02:17:27.707Z,19.84
2022-08-26T02:17:48.298Z,19.86
2022-08-26T02:18:08.701Z,19.86
2022-08-26T02:18:29.111Z,19.83
2022-08-26T02:18:49.693Z,19.86
2022-08-26T02:19:17.019Z,19.84
2022-08-26T02:19:37.892Z,19.84
2022-08-26T02:19:58.472Z,19.83
2022-08-26T02:20:19.060Z,19.87
2022-08-26T02:20:39.645Z,19.83
2022-08-26T02:21:00.244Z,19.81
2022-08-26T02:21:20.831Z,19.86
2022-08-26T02:21:41.412Z,19.86
2022-08-26T02:22:01.997Z,19.84
2022-08-26T02:22:22.394Z,19.83
2022-08-26T02:22:42.788Z,19.83
2022-08-26T02:23:03.187Z,19.84
2022-08-26T02:23:24.024Z,19.84
2022-08-26T02:23:45.049Z,19.83
2022-08-26T02:24:06.144Z,19.84
2022-08-26T02:24:27.366Z,19.83
2022-08-26T02:24:48.427Z,19.83
2022-08-26T02:25:09.221Z,19.86
2022-08-26T02:25:29.804Z,19.83
2022-08-26T02:25:50.388Z,19.83
2022-08-26T02:26:10.800Z,19.83
2022-08-26T02:26:31.379Z,19.80
2022-08-26T02:26:52.004Z,19.81
2022-08-26T02:27:12.604Z,19.84
2022-08-26T02:27:34.027Z,19.83
2022-08-26T02:27:54.610Z,19.80
2022-08-26T02:28:16.590Z,19.83
2022-08-26T02:28:36.985Z,19.80
2022-08-26T02:28:57.568Z,19.80
2022-08-26T02:29:18.157Z,19.81
2022-08-26T02:29:41.814Z,19.81
2022-08-26T02:30:02.700Z,19.84
2022-08-26T02:30:23.249Z,19.83
2022-08-26T02:30:43.645Z,19.81
2022-08-26T02:31:04.277Z,19.81
2022-08-26T02:31:25.301Z,19.80
2022-08-26T02:31:45.957Z,19.81
2022-08-26T02:32:06.539Z,19.80
2022-08-26T02:32:27.176Z,19.81
2022-08-26T02:32:49.635Z,19.80
2022-08-26T02:33:10.331Z,19.81
2022-08-26T02:33:30.924Z,19.81
2022-08-26T02:33:51.505Z,19.77
2022-08-26T02:34:12.087Z,19.80
2022-08-26T02:34:32.747Z,19.80
2022-08-26T02:34:53.335Z,19.78
2022-08-26T02:35:13.917Z,19.80
2022-08-26T02:35:34.324Z,19.78
2022-08-26T02:35:55.230Z,19.77
2022-08-26T02:36:15.816Z,19.78
2022-08-26T02:36:36.414Z,19.77
2022-08-26T02:36:56.999Z,19.78
2022-08-26T02:37:17.738Z,19.77
2022-08-26T02:37:38.330Z,19.80
2022-08-26T02:38:02.438Z,19.80
2022-08-26T02:38:22.846Z,19.78
2022-08-26T02:38:43.736Z,19.77
2022-08-26T02:39:06.773Z,19.78
2022-08-26T02:39:27.357Z,19.78
2022-08-26T02:39:48.908Z,19.76
2022-08-26T02:40:09.566Z,19.74
2022-08-26T02:40:30.266Z,19.76
2022-08-26T02:40:50.853Z,19.77
2022-08-26T02:41:11.602Z,19.76
2022-08-26T02:41:32.206Z,19.77
2022-08-26T02:41:53.249Z,19.77
2022-08-26T02:42:13.840Z,19.74
2022-08-26T02:42:34.417Z,19.76
2022-08-26T02:42:56.026Z,19.76
2022-08-26T02:43:16.212Z,19.76
2022-08-26T02:43:36.791Z,19.76
2022-08-26T02:43:57.786Z,19.76
2022-08-26T02:44:18.189Z,19.77
2022-08-26T02:44:38.769Z,19.76
2022-08-26T02:44:59.350Z,19.74
2022-08-26T02:45:23.106Z,19.76
2022-08-26T02:45:44.011Z,19.77
2022-08-26T02:46:05.014Z,19.74
2022-08-26T02:46:30.002Z,19.74
2022-08-26T02:46:47.163Z,19.76
2022-08-26T02:47:07.986Z,19.74
2022-08-26T02:47:28.929Z,19.73
2022-08-26T02:47:49.754Z,19.74
2022-08-26T02:48:10.914Z,19.73
2022-08-26T02:48:31.507Z,19.74
2022-08-26T02:48:52.082Z,19.71
2022-08-26T02:49:12.666Z,19.73
2022-08-26T02:49:33.248Z,19.74
2022-08-26T02:49:53.841Z,19.73
2022-08-26T02:50:14.425Z,19.74
2022-08-26T02:50:35.000Z,19.69
2022-08-26T02:50:55.399Z,19.69
2022-08-26T02:51:15.979Z,19.68
2022-08-26T02:51:36.376Z,19.71
2022-08-26T02:51:57.025Z,19.71
2022-08-26T02:52:17.604Z,19.71
2022-08-26T02:52:38.639Z,19.71
2022-08-26T02:52:59.224Z,19.68
2022-08-26T02:53:24.938Z,19.69
2022-08-26T02:53:40.217Z,19.71
2022-08-26T02:54:03.187Z,19.68
2022-08-26T02:54:23.587Z,19.68
2022-08-26T02:54:43.980Z,19.68
2022-08-26T02:55:06.025Z,19.68
2022-08-26T02:55:26.607Z,19.69
2022-08-26T02:55:47.191Z,19.71
2022-08-26T02:56:08.891Z,19.66
2022-08-26T02:56:29.474Z,19.69
2022-08-26T02:56:50.456Z,19.71
2022-08-26T02:57:11.054Z,19.69
2022-08-26T02:57:31.641Z,19.71
2022-08-26T02:57:52.229Z,19.68
2022-08-26T02:58:12.801Z,19.68
2022-08-26T02:58:33.385Z,19.66
2022-08-26T02:58:54.676Z,19.65
2022-08-26T02:59:15.264Z,19.63
2022-08-26T02:59:35.854Z,19.63
2022-08-26T02:59:56.436Z,19.65
2022-08-26T03:00:17.020Z,19.66
2022-08-26T03:00:37.663Z,19.66
2022-08-26T03:00:59.295Z,19.63
2022-08-26T03:01:19.939Z,19.65
2022-08-26T03:01:42.397Z,19.62
2022-08-26T03:02:03.291Z,19.63
2022-08-26T03:02:26.098Z,19.65
2022-08-26T03:02:46.688Z,19.65
2022-08-26T03:03:07.486Z,19.63
2022-08-26T03:03:28.124Z,19.63
2022-08-26T03:03:48.708Z,19.61
2022-08-26T03:04:10.164Z,19.61
2022-08-26T03:04:30.554Z,19.61
2022-08-26T03:04:58.173Z,19.63
2022-08-26T03:05:14.451Z,19.62
2022-08-26T03:05:36.461Z,19.62
2022-08-26T03:05:58.053Z,19.61
2022-08-26T03:06:18.646Z,19.63
2022-08-26T03:06:40.746Z,19.61
2022-08-26T03:06:59.958Z,19.61
2022-08-26T03:07:21.048Z,19.61
2022-08-26T03:07:41.441Z,19.58
2022-08-26T03:08:02.024Z,19.58
2022-08-26T03:08:22.627Z,19.61
2022-08-26T03:08:43.320Z,19.58
2022-08-26T03:09:03.906Z,19.58
2022-08-26T03:09:24.486Z,19.59
2022-08-26T03:09:45.069Z,19.59
2022-08-26T03:10:08.284Z,19.59
2022-08-26T03:10:29.336Z,19.56
2022-08-26T03:10:49.922Z,19.56
2022-08-26T03:11:10.505Z,19.58
2022-08-26T03:11:33.238Z,19.56
2022-08-26T03:11:53.929Z,19.56
2022-08-26T03:12:14.340Z,19.55
2022-08-26T03:12:34.922Z,19.58
2022-08-26T03:12:55.507Z,19.56
2022-08-26T03:13:16.829Z,19.59
2022-08-26T03:13:37.857Z,19.54
2022-08-26T03:13:58.441Z,19.56
2022-08-26T03:14:19.023Z,19.56
2022-08-26T03:14:39.604Z,19.56
2022-08-26T03:15:00.001Z,19.56
2022-08-26T03:15:20.941Z,19.55
2022-08-26T03:15:41.524Z,19.54
2022-08-26T03:16:02.179Z,19.56
2022-08-26T03:16:22.796Z,19.54
2022-08-26T03:16:44.167Z,19.51
2022-08-26T03:17:09.088Z,19.55
2022-08-26T03:17:30.641Z,19.55
2022-08-26T03:17:51.221Z,19.51
2022-08-26T03:18:11.809Z,19.54
2022-08-26T03:18:32.396Z,19.54
2022-08-26T03:18:52.986Z,19.51
2022-08-26T03:19:14.653Z,19.51
2022-08-26T03:19:38.131Z,19.51
2022-08-26T03:19:58.889Z,19.50
2022-08-26T03:20:19.485Z,19.51
2022-08-26T03:20:40.072Z,19.51
2022-08-26T03:21:00.470Z,19.48
2022-08-26T03:21:21.068Z,19.51
2022-08-26T03:21:41.669Z,19.50
2022-08-26T03:22:03.488Z,19.51
2022-08-26T03:22:24.094Z,19.51
2022-08-26T03:22:44.684Z,19.51
2022-08-26T03:23:05.292Z,19.47
2022-08-26T03:23:25.849Z,19.51
2022-08-26T03:23:46.470Z,19.48
2022-08-26T03:24:07.052Z,19.48
2022-08-26T03:24:27.454Z,19.51
2022-08-26T03:24:48.043Z,19.51
2022-08-26T03:25:09.019Z,19.51
2022-08-26T03:25:29.595Z,19.51
2022-08-26T03:25:50.179Z,19.55
2022-08-26T03:26:11.037Z,19.51
2022-08-26T03:26:31.585Z,19.50
2022-08-26T03:26:52.942Z,19.54
2022-08-26T03:27:14.394Z,19.51
2022-08-26T03:27:34.995Z,19.51
2022-08-26T03:27:55.576Z,19.50
2022-08-26T03:28:20.014Z,19.51
2022-08-26T03:28:40.593Z,19.54
2022-08-26T03:29:01.175Z,19.50
2022-08-26T03:29:22.672Z,19.50
2022-08-26T03:29:43.252Z,19.48
2022-08-26T03:30:04.024Z,19.48
2022-08-26T03:30:25.085Z,19.48
2022-08-26T03:30:47.133Z,19.48
2022-08-26T03:31:07.803Z,19.50
2022-08-26T03:31:28.640Z,19.47
2022-08-26T03:31:49.253Z,19.50
2022-08-26T03:32:09.838Z,19.50
2022-08-26T03:32:31.206Z,19.50
2022-08-26T03:32:51.790Z,19.48
2022-08-26T03:33:12.372Z,19.50
2022-08-26T03:33:32.952Z,19.51
2022-08-26T03:33:57.590Z,19.50
2022-08-26T03:34:13.943Z,19.51
2022-08-26T03:34:35.150Z,19.48
2022-08-26T03:34:55.551Z,19.50
2022-08-26T03:35:16.417Z,19.50
2022-08-26T03:35:37.311Z,19.50
2022-08-26T03:36:00.035Z,19.50
2022-08-26T03:36:20.617Z,19.48
2022-08-26T03:36:41.671Z,19.50
2022-08-26T03:37:02.274Z,19.48
2022-08-26T03:37:23.331Z,19.50
2022-08-26T03:37:43.951Z,19.51
2022-08-26T03:38:04.341Z,19.48
2022-08-26T03:38:24.924Z,19.51
2022-08-26T03:38:45.507Z,19.51
2022-08-26T03:39:06.201Z,19.51
2022-08-26T03:39:26.779Z,19.54
2022-08-26T03:39:47.767Z,19.51
2022-08-26T03:40:08.358Z,19.50
2022-08-26T03:40:29.302Z,19.50
2022-08-26T03:40:49.882Z,19.48
2022-08-26T03:41:10.277Z,19.48
2022-08-26T03:41:30.859Z,19.50
2022-08-26T03:41:51.444Z,19.48
2022-08-26T03:42:12.029Z,19.50
2022-08-26T03:42:32.633Z,19.47
2022-08-26T03:42:53.213Z,19.47
2022-08-26T03:43:13.802Z,19.48
2022-08-26T03:43:34.392Z,19.47
2022-08-26T03:43:57.394Z,19.46
2022-08-26T03:44:15.373Z,19.48
2022-08-26T03:44:35.956Z,19.46
2022-08-26T03:45:00.626Z,19.47
2022-08-26T03:45:21.253Z,19.47
2022-08-26T03:45:41.832Z,19.47
2022-08-26T03:46:03.154Z,19.44
2022-08-26T03:46:25.466Z,19.46
2022-08-26T03:46:47.360Z,19.48
2022-08-26T03:47:08.893Z,19.46
2022-08-26T03:47:29.490Z,19.46
2022-08-26T03:47:50.071Z,19.46
2022-08-26T03:48:10.657Z,19.47
2022-08-26T03:48:31.253Z,19.43
2022-08-26T03:48:51.835Z,19.43
2022-08-26T03:49:12.536Z,19.48
2022-08-26T03:49:35.725Z,19.47
2022-08-26T03:49:56.305Z,19.46
2022-08-26T03:50:16.888Z,19.46
2022-08-26T03:50:37.292Z,19.46
2022-08-26T03:50:57.876Z,19.46
2022-08-26T03:51:18.573Z,19.44
2022-08-26T03:51:39.653Z,19.44
2022-08-26T03:52:02.660Z,19.44
2022-08-26T03:52:24.285Z,19.43
2022-08-26T03:52:45.353Z,19.43
2022-08-26T03:53:07.467Z,19.44
2022-08-26T03:53:26.332Z,19.43
2022-08-26T03:53:46.977Z,19.46
2022-08-26T03:54:08.842Z,19.44
2022-08-26T03:54:29.426Z,19.44
2022-08-26T03:54:50.015Z,19.44
2022-08-26T03:55:10.601Z,19.44
2022-08-26T03:55:31.184Z,19.43
2022-08-26T03:55:51.809Z,19.44
2022-08-26T03:56:12.692Z,19.44
2022-08-26T03:56:33.275Z,19.43
2022-08-26T03:56:53.859Z,19.44
2022-08-26T03:57:14.438Z,19.43
2022-08-26T03:57:37.328Z,19.41
2022-08-26T03:57:57.728Z,19.46
2022-08-26T03:58:18.307Z,19.43
2022-08-26T03:58:38.893Z,19.43
2022-08-26T03:59:03.450Z,19.41
2022-08-26T03:59:24.038Z,19.43
2022-08-26T03:59:45.117Z,19.40
2022-08-26T04:00:05.741Z,19.41
2022-08-26T04:00:26.321Z,19.41
2022-08-26T04:00:46.906Z,19.39
2022-08-26T04:01:07.496Z,19.43
2022-08-26T04:01:27.957Z,19.40
2022-08-26T04:01:48.548Z,19.39
2022-08-26T04:02:11.616Z,19.39
2022-08-26T04:02:32.489Z,19.40
2022-08-26T04:02:53.378Z,19.39
2022-08-26T04:03:18.220Z,19.39
2022-08-26T04:03:34.243Z,19.40
2022-08-26T04:03:54.821Z,19.37
2022-08-26T04:04:15.600Z,19.39
2022-08-26T04:04:36.263Z,19.40
2022-08-26T04:04:56.848Z,19.37
2022-08-26T04:05:17.440Z,19.39
2022-08-26T04:05:38.312Z,19.39
2022-08-26T04:05:59.219Z,19.40
2022-08-26T04:06:19.809Z,19.39
2022-08-26T04:06:40.386Z,19.39
2022-08-26T04:07:00.973Z,19.39
2022-08-26T04:07:21.361Z,19.37
2022-08-26T04:07:43.485Z,19.37
2022-08-26T04:08:04.028Z,19.39
2022-08-26T04:08:24.609Z,19.39
2022-08-26T04:08:48.593Z,19.36
2022-08-26T04:09:09.178Z,19.36
2022-08-26T04:09:29.776Z,19.36
2022-08-26T04:09:50.371Z,19.36
2022-08-26T04:10:10.955Z,19.37
2022-08-26T04:10:31.810Z,19.37
2022-08-26T04:10:52.397Z,19.32
2022-08-26T04:11:13.049Z,19.37
2022-08-26T04:11:34.449Z,19.36
2022-08-26T04:11:55.772Z,19.36
2022-08-26T04:12:17.395Z,19.36
2022-08-26T04:12:38.268Z,19.36
2022-08-26T04:12:59.290Z,19.32
2022-08-26T04:13:19.953Z,19.37
2022-08-26T04:13:40.535Z,19.36
2022-08-26T04:14:01.426Z,19.40
2022-08-26T04:14:22.271Z,19.33
2022-08-26T04:14:42.942Z,19.33
2022-08-26T04:15:03.520Z,19.33
2022-08-26T04:15:24.107Z,19.36
2022-08-26T04:15:44.832Z,19.36
2022-08-26T04:16:05.711Z,19.36
2022-08-26T04:16:26.393Z,19.37
2022-08-26T04:16:48.375Z,19.36
2022-08-26T04:17:08.956Z,19.33
2022-08-26T04:17:29.553Z,19.33
2022-08-26T04:17:50.240Z,19.32
2022-08-26T04:18:10.822Z,19.32
2022-08-26T04:18:33.152Z,19.33
2022-08-26T04:18:51.830Z,19.36
2022-08-26T04:19:12.391Z,19.36
2022-08-26T04:19:33.080Z,19.37
2022-08-26T04:19:53.662Z,19.36
2022-08-26T04:20:16.156Z,19.36
2022-08-26T04:20:36.887Z,19.32
2022-08-26T04:20:57.471Z,19.39
2022-08-26T04:21:18.841Z,19.40
2022-08-26T04:21:39.426Z,19.37
2022-08-26T04:22:00.192Z,19.40
2022-08-26T04:22:24.177Z,19.39
2022-08-26T04:22:41.931Z,19.37
2022-08-26T04:23:02.593Z,19.40
2022-08-26T04:23:23.173Z,19.39
2022-08-26T04:23:47.131Z,19.33
2022-08-26T04:24:12.040Z,19.36
2022-08-26T04:24:32.792Z,19.36
2022-08-26T04:24:53.191Z,19.33
2022-08-26T04:25:13.831Z,19.33
2022-08-26T04:25:34.419Z,19.36
2022-08-26T04:25:56.198Z,19.33
2022-08-26T04:26:16.891Z,19.31
2022-08-26T04:26:39.555Z,19.32
2022-08-26T04:26:57.876Z,19.32
2022-08-26T04:27:18.466Z,19.31
2022-08-26T04:27:39.057Z,19.31
2022-08-26T04:28:01.293Z,19.32
2022-08-26T04:28:21.908Z,19.33
2022-08-26T04:28:43.179Z,19.36
2022-08-26T04:29:03.759Z,19.36
2022-08-26T04:29:24.153Z,19.37
2022-08-26T04:29:44.808Z,19.36
2022-08-26T04:30:05.389Z,19.36
2022-08-26T04:30:25.976Z,19.37
2022-08-26T04:30:46.563Z,19.32
2022-08-26T04:31:07.178Z,19.33
2022-08-26T04:31:28.338Z,19.36
2022-08-26T04:31:55.578Z,19.29
2022-08-26T04:32:16.486Z,19.31
2022-08-26T04:32:37.112Z,19.33
2022-08-26T04:32:57.701Z,19.32
2022-08-26T04:33:18.322Z,19.32
2022-08-26T04:33:41.711Z,19.31
2022-08-26T04:34:02.545Z,19.29
2022-08-26T04:34:22.938Z,19.31
2022-08-26T04:34:43.778Z,19.29
2022-08-26T04:35:05.566Z,19.31
2022-08-26T04:35:26.809Z,19.29
2022-08-26T04:35:47.398Z,19.28
2022-08-26T04:36:08.424Z,19.29
2022-08-26T04:36:29.015Z,19.32
2022-08-26T04:36:49.602Z,19.33
2022-08-26T04:37:11.307Z,19.33
2022-08-26T04:37:31.838Z,19.36
2022-08-26T04:37:53.145Z,19.37
2022-08-26T04:38:13.728Z,19.37
2022-08-26T04:38:34.314Z,19.39
2022-08-26T04:38:54.955Z,19.37
2022-08-26T04:39:15.537Z,19.40
2022-08-26T04:39:36.117Z,19.36
2022-08-26T04:39:56.809Z,19.37
2022-08-26T04:40:17.157Z,19.39
2022-08-26T04:40:37.709Z,19.39
2022-08-26T04:40:59.497Z,19.40
2022-08-26T04:41:20.174Z,19.39
2022-08-26T04:41:40.755Z,19.37
2022-08-26T04:42:01.775Z,19.41
2022-08-26T04:42:22.879Z,19.40
2022-08-26T04:42:46.748Z,19.41
2022-08-26T04:43:07.251Z,19.39
2022-08-26T04:43:27.882Z,19.36
2022-08-26T04:43:48.871Z,19.40
2022-08-26T04:44:09.458Z,19.37
2022-08-26T04:44:30.043Z,19.36
2022-08-26T04:44:50.630Z,19.32
2022-08-26T04:45:11.782Z,19.36
2022-08-26T04:45:32.385Z,19.36
2022-08-26T04:45:52.965Z,19.39
2022-08-26T04:46:13.725Z,19.36
2022-08-26T04:46:34.993Z,19.37
2022-08-26T04:46:55.708Z,19.37
2022-08-26T04:47:16.544Z,19.36
2022-08-26T04:47:37.147Z,19.36
2022-08-26T04:47:58.568Z,19.39
2022-08-26T04:48:19.156Z,19.36
2022-08-26T04:48:39.742Z,19.37
2022-08-26T04:49:00.328Z,19.32
2022-08-26T04:49:20.915Z,19.37
2022-08-26T04:49:41.497Z,19.32
2022-08-26T04:50:02.152Z,19.36
2022-08-26T04:50:22.493Z,19.33
2022-08-26T04:50:44.027Z,19.32
2022-08-26T04:51:07.417Z,19.37
2022-08-26T04:51:28.434Z,19.37
2022-08-26T04:51:49.033Z,19.37
2022-08-26T04:52:09.744Z,19.33
2022-08-26T04:52:30.569Z,19.36
2022-08-26T04:52:51.558Z,19.33
2022-08-26T04:53:12.145Z,19.36
2022-08-26T04:53:32.729Z,19.32
2022-08-26T04:53:54.288Z,19.36
2022-08-26T04:54:16.375Z,19.37
2022-08-26T04:54:37.014Z,19.36
2022-08-26T04:54:57.604Z,19.33
2022-08-26T04:55:18.185Z,19.36
2022-08-26T04:55:42.696Z,19.32
2022-08-26T04:56:00.467Z,19.32
2022-08-26T04:56:21.051Z,19.33
2022-08-26T04:56:41.632Z,19.32
2022-08-26T04:57:02.026Z,19.33
2022-08-26T04:57:22.609Z,19.33
2022-08-26T04:57:43.211Z,19.36
2022-08-26T04:58:03.611Z,19.36
2022-08-26T04:58:24.413Z,19.36
2022-08-26T04:58:45.897Z,19.37
2022-08-26T04:59:06.471Z,19.37
2022-08-26T04:59:27.822Z,19.36
2022-08-26T04:59:49.257Z,19.36
2022-08-26T05:00:10.072Z,19.36
2022-08-26T05:00:31.639Z,19.33
2022-08-26T05:00:52.228Z,19.37
2022-08-26T05:01:14.350Z,19.39
2022-08-26T05:01:36.652Z,19.36
2022-08-26T05:02:00.212Z,19.40
2022-08-26T05:02:20.757Z,19.40
2022-08-26T05:02:41.342Z,19.41
2022-08-26T05:03:01.839Z,19.40
2022-08-26T05:03:22.405Z,19.41
2022-08-26T05:03:43.049Z,19.41
2022-08-26T05:04:03.653Z,19.43
2022-08-26T05:04:28.562Z,19.41
2022-08-26T05:04:48.970Z,19.46
2022-08-26T05:05:12.442Z,19.44
2022-08-26T05:05:33.032Z,19.46
2022-08-26T05:05:53.714Z,19.44
2022-08-26T05:06:14.299Z,19.47
2022-08-26T05:06:35.558Z,19.46
2022-08-26T05:06:59.835Z,19.48
2022-08-26T05:07:18.160Z,19.48
2022-08-26T05:07:38.844Z,19.50
2022-08-26T05:07:59.507Z,19.51
2022-08-26T05:08:20.049Z,19.48
2022-08-26T05:08:40.632Z,19.51
2022-08-26T05:09:01.545Z,19.50
2022-08-26T05:09:23.006Z,19.54
2022-08-26T05:09:43.661Z,19.51
2022-08-26T05:10:04.805Z,19.50
2022-08-26T05:10:25.203Z,19.56
2022-08-26T05:10:47.222Z,19.55
2022-08-26T05:11:07.807Z,19.55
2022-08-26T05:11:29.990Z,19.56
2022-08-26T05:11:52.151Z,19.55
2022-08-26T05:12:13.032Z,19.58
2022-08-26T05:12:33.634Z,19.56
2022-08-26T05:12:54.219Z,19.56
2022-08-26T05:13:15.759Z,19.58
2022-08-26T05:13:36.409Z,19.58
2022-08-26T05:14:01.603Z,19.58
2022-08-26T05:14:17.840Z,19.58
2022-08-26T05:14:38.426Z,19.61
2022-08-26T05:14:59.010Z,19.59
2022-08-26T05:15:20.342Z,19.59
2022-08-26T05:15:40.948Z,19.62
2022-08-26T05:16:01.922Z,19.62
2022-08-26T05:16:22.537Z,19.61
2022-08-26T05:16:43.103Z,19.63
2022-08-26T05:17:03.504Z,19.63
2022-08-26T05:17:26.082Z,19.65
2022-08-26T05:17:46.665Z,19.65
2022-08-26T05:18:07.353Z,19.66
2022-08-26T05:18:27.934Z,19.69
2022-08-26T05:18:48.336Z,19.69
2022-08-26T05:19:08.916Z,19.69
2022-08-26T05:19:29.499Z,19.71
2022-08-26T05:19:50.083Z,19.71
2022-08-26T05:20:10.663Z,19.74
2022-08-26T05:20:31.258Z,19.76
2022-08-26T05:20:51.653Z,19.77
2022-08-26T05:21:14.961Z,19.76
2022-08-26T05:21:36.856Z,19.74
2022-08-26T05:21:59.265Z,19.77
2022-08-26T05:22:19.839Z,19.77
2022-08-26T05:22:40.982Z,19.77
2022-08-26T05:23:01.653Z,19.77
2022-08-26T05:23:22.200Z,19.78
2022-08-26T05:23:42.783Z,19.81
2022-08-26T05:24:03.369Z,19.80
2022-08-26T05:24:23.776Z,19.84
2022-08-26T05:24:44.357Z,19.83
2022-08-26T05:25:04.829Z,19.80
2022-08-26T05:25:25.380Z,19.83
2022-08-26T05:25:48.038Z,19.83
2022-08-26T05:26:08.696Z,19.83
2022-08-26T05:26:30.313Z,19.86
2022-08-26T05:26:50.893Z,19.83
2022-08-26T05:27:12.598Z,19.87
2022-08-26T05:27:33.168Z,19.86
2022-08-26T05:27:53.745Z,19.87
2022-08-26T05:28:14.333Z,19.88
2022-08-26T05:28:34.915Z,19.88
2022-08-26T05:28:55.874Z,19.88
2022-08-26T05:29:16.701Z,19.88
2022-08-26T05:29:36.854Z,19.92
2022-08-26T05:29:57.441Z,19.91
2022-08-26T05:30:18.031Z,19.91
2022-08-26T05:30:38.644Z,19.92
2022-08-26T05:30:59.234Z,19.94
2022-08-26T05:31:20.712Z,19.92
2022-08-26T05:31:41.287Z,19.95
2022-08-26T05:32:01.866Z,19.95
2022-08-26T05:32:23.054Z,19.98
2022-08-26T05:32:43.642Z,19.95
2022-08-26T05:33:04.231Z,19.99
2022-08-26T05:33:24.811Z,19.96
2022-08-26T05:33:45.397Z,20.01
2022-08-26T05:34:05.989Z,19.99
2022-08-26T05:34:30.241Z,19.99
2022-08-26T05:34:51.322Z,19.99
2022-08-26T05:35:13.866Z,20.01
2022-08-26T05:35:36.487Z,20.02
2022-08-26T05:36:44.367Z,20.03
2022-08-26T05:37:05.153Z,20.03
2022-08-26T05:37:25.861Z,20.08
2022-08-26T05:37:46.444Z,20.08
2022-08-26T05:38:11.811Z,20.05
2022-08-26T05:38:30.356Z,20.06
2022-08-26T05:38:47.835Z,20.08
2022-08-26T05:39:10.505Z,20.08
2022-08-26T05:39:31.309Z,20.10
2022-08-26T05:39:52.022Z,20.11
2022-08-26T05:40:13.089Z,20.13
2022-08-26T05:40:33.720Z,20.13
2022-08-26T05:40:54.283Z,20.11
2022-08-26T05:41:14.868Z,20.14
2022-08-26T05:41:38.557Z,20.17
2022-08-26T05:41:59.257Z,20.18
2022-08-26T05:42:20.475Z,20.18
2022-08-26T05:42:41.061Z,20.18
2022-08-26T05:43:01.778Z,20.21
2022-08-26T05:43:22.040Z,20.21
2022-08-26T05:43:42.442Z,20.23
2022-08-26T05:44:03.661Z,20.21
2022-08-26T05:44:24.254Z,20.21
2022-08-26T05:44:53.795Z,20.26
2022-08-26T05:45:05.058Z,20.23
2022-08-26T05:45:25.639Z,20.26
2022-08-26T05:45:46.517Z,20.28
2022-08-26T05:46:07.727Z,20.23
2022-08-26T05:46:28.328Z,20.29
2022-08-26T05:46:48.930Z,20.28
2022-08-26T05:47:11.809Z,20.31
2022-08-26T05:47:32.769Z,20.29
2022-08-26T05:47:53.351Z,20.28
2022-08-26T05:48:13.952Z,20.29
2022-08-26T05:48:34.538Z,20.33
2022-08-26T05:48:55.125Z,20.35
2022-08-26T05:49:15.875Z,20.32
2022-08-26T05:49:36.516Z,20.36
2022-08-26T05:49:56.922Z,20.35
2022-08-26T05:50:17.510Z,20.35
2022-08-26T05:50:38.501Z,20.35
2022-08-26T05:50:59.088Z,20.36
2022-08-26T05:51:23.978Z,20.35
2022-08-26T05:51:40.080Z,20.39
2022-08-26T05:52:00.667Z,20.41
2022-08-26T05:52:21.249Z,20.39
2022-08-26T05:52:41.296Z,20.42
2022-08-26T05:53:02.082Z,20.43
2022-08-26T05:53:22.673Z,20.41
2022-08-26T05:53:54.472Z,20.43
2022-08-26T05:54:06.837Z,20.47
2022-08-26T05:54:27.419Z,20.47
2022-08-26T05:54:48.004Z,20.48
2022-08-26T05:55:08.593Z,20.42
2022-08-26T05:55:29.172Z,20.43
2022-08-26T05:55:49.755Z,20.48
2022-08-26T05:56:10.339Z,20.48
2022-08-26T05:56:30.918Z,20.43
2022-08-26T05:56:51.328Z,20.47
2022-08-26T05:57:11.901Z,20.50
2022-08-26T05:57:32.481Z,20.51
2022-08-26T05:57:53.088Z,20.50
2022-08-26T05:58:13.674Z,20.51
2022-08-26T05:58:34.268Z,20.54
2022-08-26T05:58:54.853Z,20.52
2022-08-26T05:59:15.433Z,20.54
2022-08-26T05:59:36.017Z,20.55
2022-08-26T05:59:59.403Z,20.58
2022-08-26T06:00:21.588Z,20.57
2022-08-26T06:00:42.721Z,20.61
2022-08-26T06:01:04.691Z,20.61
2022-08-26T06:01:25.306Z,20.59
2022-08-26T06:01:45.901Z,20.61
2022-08-26T06:02:06.636Z,20.64
2022-08-26T06:02:27.007Z,20.64
2022-08-26T06:02:48.454Z,20.67
2022-08-26T06:03:08.243Z,20.67
2022-08-26T06:03:28.875Z,20.64
2022-08-26T06:03:50.236Z,20.70
2022-08-26T06:04:10.860Z,20.70
2022-08-26T06:04:31.504Z,20.70
2022-08-26T06:04:52.411Z,20.73
2022-08-26T06:05:13.392Z,20.74
2022-08-26T06:05:38.307Z,20.73
2022-08-26T06:05:54.414Z,20.74
2022-08-26T06:06:14.995Z,20.76
2022-08-26T06:06:35.397Z,20.76
2022-08-26T06:06:55.994Z,20.77
2022-08-26T06:07:16.569Z,20.80
2022-08-26T06:07:37.148Z,20.80
2022-08-26T06:08:00.365Z,20.79
2022-08-26T06:09:10.813Z,20.85
2022-08-26T06:09:31.557Z,20.85
2022-08-26T06:09:58.553Z,20.87
2022-08-26T06:10:31.495Z,20.88
2022-08-26T06:10:33.981Z,20.91
2022-08-26T06:10:57.252Z,20.92
2022-08-26T06:11:18.444Z,20.92
2022-08-26T06:11:39.350Z,20.95
2022-08-26T06:11:59.934Z,20.97
2022-08-26T06:12:21.749Z,20.97
2022-08-26T06:12:42.349Z,21.03
2022-08-26T06:13:11.923Z,20.97
2022-08-26T06:13:25.215Z,21.03
2022-08-26T06:14:33.577Z,21.07
2022-08-26T06:14:54.435Z,21.13
2022-08-26T06:15:15.013Z,21.12
2022-08-26T06:15:36.142Z,21.13
2022-08-26T06:15:56.584Z,21.14
2022-08-26T06:16:16.965Z,21.14
2022-08-26T06:16:37.542Z,21.17
2022-08-26T06:16:57.937Z,21.19
2022-08-26T06:17:18.522Z,21.22
2022-08-26T06:17:39.105Z,21.21
2022-08-26T06:18:00.166Z,21.22
2022-08-26T06:18:20.775Z,21.25
2022-08-26T06:18:41.664Z,21.27
2022-08-26T06:19:02.246Z,21.29
2022-08-26T06:19:23.232Z,21.31
2022-08-26T06:19:43.811Z,21.31
2022-08-26T06:20:04.392Z,21.34
2022-08-26T06:20:25.454Z,21.34
2022-08-26T06:20:56.988Z,21.38
2022-08-26T06:21:07.024Z,21.38
2022-08-26T06:21:28.906Z,21.42
2022-08-26T06:21:51.353Z,21.43
2022-08-26T06:22:09.896Z,21.44
2022-08-26T06:22:30.480Z,21.46
2022-08-26T06:22:51.058Z,21.47
2022-08-26T06:23:11.646Z,21.49
2022-08-26T06:23:32.250Z,21.49
2022-08-26T06:23:52.831Z,21.50
2022-08-26T06:24:13.421Z,21.54
2022-08-26T06:24:33.828Z,21.54
2022-08-26T06:24:54.425Z,21.58
2022-08-26T06:25:15.360Z,21.59
2022-08-26T06:25:36.130Z,21.62
2022-08-26T06:25:57.943Z,21.62
2022-08-26T06:26:18.527Z,21.64
2022-08-26T06:26:39.114Z,21.67
2022-08-26T06:27:03.244Z,21.67
2022-08-26T06:27:23.829Z,21.68
2022-08-26T06:27:44.414Z,21.71
2022-08-26T06:28:05.505Z,21.72
2022-08-26T06:28:26.085Z,21.77
2022-08-26T06:28:46.501Z,21.77
2022-08-26T06:29:07.673Z,21.80
2022-08-26T06:29:29.014Z,21.82
2022-08-26T06:29:49.594Z,21.82
2022-08-26T06:30:10.176Z,21.83
2022-08-26T06:30:30.572Z,21.86
2022-08-26T06:30:51.324Z,21.86
2022-08-26T06:31:12.044Z,21.86
2022-08-26T06:31:32.643Z,21.90
2022-08-26T06:31:52.986Z,21.92
2022-08-26T06:32:13.668Z,21.92
2022-08-26T06:32:34.253Z,21.92
2022-08-26T06:32:54.838Z,21.98
2022-08-26T06:33:15.429Z,21.99
2022-08-26T06:33:36.009Z,21.99